Time;durP1;ratioP1;P1;durP2;ratioP2;P2;SDS_P1;SDS_P2;PMS_P1;PMS_P2;Temp;Humidity;BMP_temperature;BMP_pressure;BME280_temperature;BME280_humidity;BME280_pressure;Samples;Min_cycle;Max_cycle;Signal;HPM_P1;HPM_P2
2021/08/14 00:00:52;;;;;;;;;;;;;;;37.22;20.98;95110.84;5061121;28;19917;-49
2021/08/14 00:03:19;;;;;;;;;;;;;;;37.29;20.97;95115.31;5057327;28;19928;-49
2021/08/14 00:05:46;;;;;;;;;;;;;;;37.32;20.85;95114.44;5073258;28;19912;-48
2021/08/14 00:08:13;;;;;;;;;;;;;;;37.35;20.55;95108.09;5075761;28;19917;-52
2021/08/14 00:10:40;;;;;;;;;;;;;;;37.21;21.05;95114.75;5062074;28;19925;-49
2021/08/14 00:13:06;;;;;;;;;;;;;;;37.35;20.43;95114.31;5056554;28;20318;-49
2021/08/14 00:15:33;;;;;;;;;;;;;;;37.57;20.33;95114.31;5056802;28;19920;-49
2021/08/14 00:18:00;;;;;;;;;;;;;;;37.20;20.50;95115.94;5056891;28;19916;-50
2021/08/14 00:20:27;;;;;;;;;;;;;;;37.33;20.50;95126.84;5056657;28;19913;-50
2021/08/14 00:22:54;;;;;;;;;;;;;;;37.07;21.13;95128.88;5064964;28;20299;-49
2021/08/14 00:25:21;;;;;;;;;;;;;;;37.04;21.26;95127.03;5056481;28;19927;-50
2021/08/14 00:27:48;;;;;;;;;;;;;;;37.19;21.01;95125.34;5056729;28;19912;-49
2021/08/14 00:30:14;;;;;;;;;;;;;;;37.09;20.82;95136.59;5056068;28;20296;-53
2021/08/14 00:32:41;;;;;;;;;;;;;;;36.97;20.93;95130.75;5056213;28;19919;-48
2021/08/14 00:35:09;;;;;;;;;;;;;;;36.74;21.33;95142.72;5074638;28;19912;-48
2021/08/14 00:37:35;;;;;;;;;;;;;;;37.02;21.02;95151.22;5067986;28;19912;-49
2021/08/14 00:40:03;;;;;;;;;;;;;;;36.49;21.69;95141.97;5054958;28;19923;-49
2021/08/14 00:42:30;;;;;;;;;;;;;;;36.30;21.94;95149.13;5056271;28;20266;-48
2021/08/14 00:44:58;;;;;;;;;;;;;;;36.59;21.52;95147.09;5073166;28;19912;-48
2021/08/14 00:47:25;;;;;;;;;;;;;;;36.07;22.36;95156.38;5070528;28;19924;-50
2021/08/14 00:49:52;;;;;;;;;;;;;;;36.38;21.57;95153.16;5056250;28;19916;-49
2021/08/14 00:52:19;;;;;;;;;;;;;;;36.21;21.88;95154.44;5056227;28;19921;-49
2021/08/14 00:54:58;;;;;;;;;;;;;;;36.19;21.82;95149.44;5072958;28;20322;-49
2021/08/14 00:57:25;;;;;;;;;;;;;;;35.93;22.26;95151.34;5076175;28;20202;-49
2021/08/14 00:59:52;;;;;;;;;;;;;;;35.88;22.34;95138.25;5075938;28;19916;-50
2021/08/14 01:02:19;;;;;;;;;;;;;;;36.05;21.98;95137.00;5076033;28;19919;-48
2021/08/14 01:04:46;;;;;;;;;;;;;;;35.90;22.33;95145.97;5060010;28;19917;-50
2021/08/14 01:07:14;;;;;;;;;;;;;;;36.12;22.20;95142.22;5056041;28;19913;-50
2021/08/14 01:09:42;;;;;;;;;;;;;;;35.97;22.24;95145.78;5055286;28;19917;-49
2021/08/14 01:12:11;;;;;;;;;;;;;;;35.98;22.30;95137.19;5055711;28;19923;-49
2021/08/14 01:14:38;;;;;;;;;;;;;;;36.18;21.83;95133.53;5068320;28;19920;-49
2021/08/14 01:17:05;;;;;;;;;;;;;;;36.12;22.22;95131.34;5076006;28;19923;-51
2021/08/14 01:19:31;;;;;;;;;;;;;;;35.99;22.09;95133.28;5075992;28;19916;-50
2021/08/14 01:21:58;;;;;;;;;;;;;;;35.97;22.31;95130.25;5075930;28;20239;-51
2021/08/14 01:24:26;;;;;;;;;;;;;;;35.97;22.44;95132.97;5063326;28;19928;-49
2021/08/14 01:26:52;;;;;;;;;;;;;;;35.70;22.83;95137.97;5055841;28;19912;-50
2021/08/14 01:29:19;;;;;;;;;;;;;;;35.83;22.44;95125.19;5053827;28;19913;-49
2021/08/14 01:31:46;;;;;;;;;;;;;;;35.88;22.51;95127.38;5054861;28;20330;-49
2021/08/14 01:34:13;;;;;;;;;;;;;;;36.02;22.34;95121.53;5064902;28;19913;-49
2021/08/14 01:36:40;;;;;;;;;;;;;;;35.76;22.88;95122.66;5074672;28;20242;-49
2021/08/14 01:39:07;;;;;;;;;;;;;;;35.83;22.41;95119.75;5075176;28;19917;-49
2021/08/14 01:41:34;;;;;;;;;;;;;;;35.83;22.61;95122.47;5075712;28;20238;-49
2021/08/14 01:44:02;;;;;;;;;;;;;;;35.75;22.77;95123.84;5067333;28;20346;-50
2021/08/14 01:46:31;;;;;;;;;;;;;;;36.07;22.43;95122.94;5055358;28;19923;-49
2021/08/14 01:48:58;;;;;;;;;;;;;;;35.59;22.92;95121.16;5055605;28;19912;-49
2021/08/14 01:51:25;;;;;;;;;;;;;;;35.84;22.60;95121.28;5055061;28;20295;-48
2021/08/14 01:53:56;;;;;;;;;;;;;;;35.98;22.62;95126.31;5054730;28;19920;-50
2021/08/14 01:56:23;;;;;;;;;;;;;;;35.81;22.73;95133.00;5055017;28;19920;-50
2021/08/14 01:58:50;;;;;;;;;;;;;;;35.93;22.50;95129.56;5054976;28;19912;-48
2021/08/14 02:01:17;;;;;;;;;;;;;;;36.16;22.16;95128.50;5055457;28;19920;-49
2021/08/14 02:03:46;;;;;;;;;;;;;;;35.80;22.65;95126.03;5058813;28;19916;-49
2021/08/14 02:06:22;;;;;;;;;;;;;;;35.99;22.59;95122.41;5074656;28;19912;-48
2021/08/14 02:08:49;;;;;;;;;;;;;;;35.72;22.78;95125.47;5074636;28;19916;-50
2021/08/14 02:11:17;;;;;;;;;;;;;;;35.72;22.80;95124.69;5074496;28;20200;-49
2021/08/14 02:13:44;;;;;;;;;;;;;;;35.69;22.72;95120.13;5074035;28;19923;-51
2021/08/14 02:16:12;;;;;;;;;;;;;;;35.90;22.87;95116.81;5074283;28;19920;-48
2021/08/14 02:18:39;;;;;;;;;;;;;;;35.71;22.95;95120.47;5075388;28;20200;-49
2021/08/14 02:21:06;;;;;;;;;;;;;;;35.88;22.72;95121.94;5074425;28;19920;-51
2021/08/14 02:23:33;;;;;;;;;;;;;;;35.87;22.66;95114.19;5072153;28;19924;-51
2021/08/14 02:26:00;;;;;;;;;;;;;;;35.84;22.65;95111.16;5054821;28;19923;-49
2021/08/14 02:28:27;;;;;;;;;;;;;;;35.92;22.57;95103.56;5055002;28;20338;-49
2021/08/14 02:30:54;;;;;;;;;;;;;;;35.89;22.96;95109.84;5053587;28;19913;-49
2021/08/14 02:33:22;;;;;;;;;;;;;;;35.85;22.61;95111.91;5055709;28;19947;-49
2021/08/14 02:35:48;;;;;;;;;;;;;;;35.65;23.00;95108.56;5074824;28;19912;-50
2021/08/14 02:38:16;;;;;;;;;;;;;;;35.59;23.02;95111.06;5059847;28;19920;-49
2021/08/14 02:40:46;;;;;;;;;;;;;;;35.61;22.84;95118.78;5054894;28;19920;-49
2021/08/14 02:43:13;;;;;;;;;;;;;;;35.58;23.27;95116.91;5053928;28;19923;-48
2021/08/14 02:45:44;;;;;;;;;;;;;;;36.09;22.28;95115.88;5056645;28;19912;-48
2021/08/14 02:48:11;;;;;;;;;;;;;;;35.91;22.71;95114.84;5071038;28;20295;-50
2021/08/14 02:50:39;;;;;;;;;;;;;;;35.54;23.23;95125.94;5074655;28;19912;-49
2021/08/14 02:53:06;;;;;;;;;;;;;;;35.61;23.06;95118.78;5074819;28;19913;-49
2021/08/14 02:55:33;;;;;;;;;;;;;;;35.80;22.84;95126.03;5074697;28;19916;-49
2021/08/14 02:57:59;;;;;;;;;;;;;;;35.73;22.83;95128.94;5059928;28;19916;-48
2021/08/14 03:00:26;;;;;;;;;;;;;;;35.66;23.06;95131.88;5054790;28;20246;-49
2021/08/14 03:02:53;;;;;;;;;;;;;;;35.48;23.18;95130.38;5054149;28;19923;-48
2021/08/14 03:05:20;;;;;;;;;;;;;;;35.65;23.12;95130.31;5054771;28;19920;-48
2021/08/14 03:07:47;;;;;;;;;;;;;;;35.65;23.02;95138.47;5057176;28;19916;-49
2021/08/14 03:10:14;;;;;;;;;;;;;;;35.52;23.38;95138.44;5056747;28;19923;-49
2021/08/14 03:12:41;;;;;;;;;;;;;;;35.57;23.06;95142.59;5058064;28;20307;-50
2021/08/14 03:15:08;;;;;;;;;;;;;;;35.51;23.13;95147.78;5057910;28;19924;-52
2021/08/14 03:17:35;;;;;;;;;;;;;;;35.52;23.20;95144.63;5067986;28;19919;-50
2021/08/14 03:20:03;;;;;;;;;;;;;;;35.73;22.76;95156.13;5077638;28;19916;-49
2021/08/14 03:22:29;;;;;;;;;;;;;;;35.64;23.07;95161.41;5077929;28;20254;-48
2021/08/14 03:24:56;;;;;;;;;;;;;;;35.61;23.21;95156.84;5077483;28;19916;-49
2021/08/14 03:27:23;;;;;;;;;;;;;;;35.65;22.92;95163.69;5069315;28;19941;-50
2021/08/14 03:29:50;;;;;;;;;;;;;;;35.73;22.80;95164.28;5057873;28;19912;-49
2021/08/14 03:32:17;;;;;;;;;;;;;;;35.71;22.93;95169.41;5057797;28;19919;-50
2021/08/14 03:34:44;;;;;;;;;;;;;;;35.53;23.12;95170.63;5057244;28;19917;-49
2021/08/14 03:37:11;;;;;;;;;;;;;;;35.33;23.54;95169.94;5057069;28;19923;-48
2021/08/14 03:39:38;;;;;;;;;;;;;;;34.99;23.80;95173.13;5072752;28;20006;-50
2021/08/14 03:42:05;;;;;;;;;;;;;;;34.98;23.76;95182.47;5077582;28;19920;-50
2021/08/14 03:44:32;;;;;;;;;;;;;;;35.10;23.81;95173.63;5077039;28;19924;-51
2021/08/14 03:46:59;;;;;;;;;;;;;;;34.95;23.72;95174.41;5061319;28;19916;-49
2021/08/14 03:49:26;;;;;;;;;;;;;;;34.93;23.85;95177.53;5076999;28;19919;-49
2021/08/14 03:51:52;;;;;;;;;;;;;;;34.74;24.09;95173.69;5076290;28;20342;-49
2021/08/14 03:54:19;;;;;;;;;;;;;;;35.04;23.86;95182.72;5077230;28;19916;-52
2021/08/14 03:56:46;;;;;;;;;;;;;;;34.74;24.20;95178.34;5074191;28;19920;-49
2021/08/14 03:59:13;;;;;;;;;;;;;;;35.11;23.70;95180.59;5057302;28;19912;-49
2021/08/14 04:01:40;;;;;;;;;;;;;;;35.29;23.43;95177.44;5057002;28;19913;-49
2021/08/14 04:04:07;;;;;;;;;;;;;;;35.08;23.88;95186.09;5056863;28;20259;-49
2021/08/14 04:06:34;;;;;;;;;;;;;;;35.07;23.92;95190.78;5057000;28;19919;-49
2021/08/14 04:09:01;;;;;;;;;;;;;;;35.03;23.97;95200.19;5055578;28;19917;-50
2021/08/14 04:11:27;;;;;;;;;;;;;;;34.88;24.28;95189.69;5057350;28;19924;-51
2021/08/14 04:13:54;;;;;;;;;;;;;;;35.04;23.85;95196.28;5056877;28;19920;-49
2021/08/14 04:16:21;;;;;;;;;;;;;;;34.84;24.24;95199.06;5057295;28;19928;-51
2021/08/14 04:18:48;;;;;;;;;;;;;;;34.74;24.37;95203.53;5074392;28;19919;-49
2021/08/14 04:21:15;;;;;;;;;;;;;;;35.13;23.89;95210.84;5076772;28;19916;-49
2021/08/14 04:23:42;;;;;;;;;;;;;;;34.91;24.54;95205.13;5076184;28;19920;-51
2021/08/14 04:26:09;;;;;;;;;;;;;;;34.88;24.27;95205.97;5076576;28;19913;-49
2021/08/14 04:28:36;;;;;;;;;;;;;;;35.08;23.96;95202.41;5076795;28;19916;-50
2021/08/14 04:31:03;;;;;;;;;;;;;;;35.28;23.92;95205.81;5076501;28;19916;-51
2021/08/14 04:33:30;;;;;;;;;;;;;;;35.39;23.76;95198.16;5076604;28;19916;-50
2021/08/14 04:35:57;;;;;;;;;;;;;;;35.31;23.99;95204.94;5076810;28;19943;-49
2021/08/14 04:38:23;;;;;;;;;;;;;;;35.19;23.96;95192.06;5066557;28;19916;-48
2021/08/14 04:40:50;;;;;;;;;;;;;;;35.33;23.96;95197.13;5076928;28;19920;-50
2021/08/14 04:43:17;;;;;;;;;;;;;;;35.40;23.83;95191.56;5062539;28;19951;-49
2021/08/14 04:45:44;;;;;;;;;;;;;;;35.62;23.82;95191.75;5056684;28;19947;-48
2021/08/14 04:48:11;;;;;;;;;;;;;;;35.65;23.77;95184.69;5068574;28;19916;-50
2021/08/14 04:50:38;;;;;;;;;;;;;;;35.88;23.31;95191.88;5076637;28;19913;-50
2021/08/14 04:53:05;;;;;;;;;;;;;;;36.11;23.19;95188.91;5075704;28;19912;-49
2021/08/14 04:55:31;;;;;;;;;;;;;;;36.11;22.68;95178.78;5076583;28;19946;-50
2021/08/14 04:57:58;;;;;;;;;;;;;;;36.11;23.09;95186.94;5065265;28;19943;-50
2021/08/14 05:00:25;;;;;;;;;;;;;;;36.45;23.08;95180.19;5055780;28;19919;-49
2021/08/14 05:02:52;;;;;;;;;;;;;;;36.58;22.42;95182.91;5055982;28;20278;-48
2021/08/14 05:05:19;;;;;;;;;;;;;;;36.49;23.06;95183.56;5056329;28;19925;-49
2021/08/14 05:07:46;;;;;;;;;;;;;;;36.53;22.82;95192.41;5055763;28;19919;-49
2021/08/14 05:10:16;;;;;;;;;;;;;;;36.49;22.66;95191.75;5055451;28;19916;-50
2021/08/14 05:12:43;;;;;;;;;;;;;;;36.23;23.12;95201.03;5055558;28;19924;-50
2021/08/14 05:15:10;;;;;;;;;;;;;;;36.50;22.82;95198.72;5055906;28;19920;-48
2021/08/14 05:17:37;;;;;;;;;;;;;;;36.59;22.77;95200.78;5061245;28;19916;-48
2021/08/14 05:20:05;;;;;;;;;;;;;;;36.96;22.17;95193.84;5075070;28;19920;-49
2021/08/14 05:22:32;;;;;;;;;;;;;;;36.93;22.21;95195.47;5073862;28;19916;-51
2021/08/14 05:24:58;;;;;;;;;;;;;;;37.10;22.12;95196.09;5075011;28;20299;-49
2021/08/14 05:27:25;;;;;;;;;;;;;;;36.98;22.45;95202.34;5070376;28;20295;-48
2021/08/14 05:29:52;;;;;;;;;;;;;;;36.87;22.64;95199.19;5054831;28;20247;-50
2021/08/14 05:32:19;;;;;;;;;;;;;;;37.22;21.82;95205.47;5055308;28;19912;-50
2021/08/14 05:34:46;;;;;;;;;;;;;;;37.19;22.16;95200.88;5055520;28;20303;-49
2021/08/14 05:37:13;;;;;;;;;;;;;;;37.73;21.24;95203.41;5057926;28;19936;-48
2021/08/14 05:39:40;;;;;;;;;;;;;;;37.59;21.46;95192.97;5075188;28;19912;-51
2021/08/14 05:42:06;;;;;;;;;;;;;;;37.60;21.70;95194.50;5073061;28;19923;-52
2021/08/14 05:44:33;;;;;;;;;;;;;;;37.64;21.66;95197.84;5055211;28;19923;-51
2021/08/14 05:47:00;;;;;;;;;;;;;;;37.53;21.27;95195.50;5055247;28;20196;-49
2021/08/14 05:49:27;;;;;;;;;;;;;;;37.57;21.84;95203.56;5075255;28;19916;-49
2021/08/14 05:51:54;;;;;;;;;;;;;;;37.52;21.89;95204.88;5074983;28;19913;-50
2021/08/14 05:54:21;;;;;;;;;;;;;;;37.73;21.38;95199.91;5075183;28;19920;-49
2021/08/14 05:56:48;;;;;;;;;;;;;;;37.64;21.64;95206.03;5055800;28;19970;-50
2021/08/14 05:59:14;;;;;;;;;;;;;;;37.74;21.60;95206.94;5073828;28;20311;-49
2021/08/14 06:01:41;;;;;;;;;;;;;;;37.22;21.47;95197.31;5075176;28;19919;-49
2021/08/14 06:04:08;;;;;;;;;;;;;;;37.85;21.10;95210.78;5074730;28;20331;-50
2021/08/14 06:06:35;;;;;;;;;;;;;;;37.30;21.81;95202.09;5075144;28;19923;-49
2021/08/14 06:09:02;;;;;;;;;;;;;;;38.40;20.73;95205.72;5057559;28;20253;-49
2021/08/14 06:11:29;;;;;;;;;;;;;;;38.55;20.11;95203.22;5055343;28;20327;-49
2021/08/14 06:13:56;;;;;;;;;;;;;;;38.67;19.95;95202.38;5054900;28;19920;-49
2021/08/14 06:16:23;;;;;;;;;;;;;;;38.77;20.01;95200.44;5055297;28;19928;-50
2021/08/14 06:18:50;;;;;;;;;;;;;;;39.14;19.58;95201.38;5055017;28;20357;-50
2021/08/14 06:21:17;;;;;;;;;;;;;;;38.53;20.05;95203.69;5056512;28;19920;-72
2021/08/14 06:23:44;;;;;;;;;;;;;;;38.56;20.22;95202.78;5065343;28;19916;-74
2021/08/14 06:26:11;;;;;;;;;;;;;;;39.31;19.52;95199.91;5074693;28;20230;-74
2021/08/14 06:28:38;;;;;;;;;;;;;;;39.95;19.15;95201.94;5075138;28;19924;-74
2021/08/14 06:31:05;;;;;;;;;;;;;;;39.52;19.31;95202.97;5075309;28;19924;-73
2021/08/14 06:33:32;;;;;;;;;;;;;;;40.03;18.78;95208.63;5071055;28;19923;-74
2021/08/14 06:36:01;;;;;;;;;;;;;;;40.63;18.38;95205.19;5070341;28;19921;-74
2021/08/14 06:38:28;;;;;;;;;;;;;;;40.32;18.54;95203.41;5054837;28;19920;-74
2021/08/14 06:40:55;;;;;;;;;;;;;;;40.57;18.06;95204.28;5056074;28;19916;-74
2021/08/14 06:43:22;;;;;;;;;;;;;;;40.64;18.19;95206.72;5065027;28;19916;-73
2021/08/14 06:45:49;;;;;;;;;;;;;;;40.82;18.02;95201.16;5066624;28;19912;-73
2021/08/14 06:48:15;;;;;;;;;;;;;;;40.71;18.21;95208.34;5059181;28;19913;-73
2021/08/14 06:50:42;;;;;;;;;;;;;;;40.85;17.89;95205.72;5059472;28;20226;-74
2021/08/14 06:53:09;;;;;;;;;;;;;;;40.99;17.90;95204.31;5061133;28;19921;-51
2021/08/14 06:55:36;;;;;;;;;;;;;;;41.38;17.72;95196.16;5080908;28;19920;-70
2021/08/14 06:58:03;;;;;;;;;;;;;;;41.22;17.50;95194.59;5082528;28;19915;-53
2021/08/14 07:00:30;;;;;;;;;;;;;;;41.18;17.58;95196.75;5078681;28;19923;-57
2021/08/14 07:02:57;;;;;;;;;;;;;;;41.19;17.52;95201.75;5076401;28;19917;-54
2021/08/14 07:05:23;;;;;;;;;;;;;;;41.27;17.76;95200.22;5080083;28;19922;-57
2021/08/14 07:07:50;;;;;;;;;;;;;;;41.64;17.54;95191.78;5096342;28;20294;-57
2021/08/14 07:10:18;;;;;;;;;;;;;;;41.64;17.45;95193.69;5076146;28;20308;-56
2021/08/14 07:12:45;;;;;;;;;;;;;;;41.35;17.63;95197.09;5072311;28;19932;-61
2021/08/14 07:15:12;;;;;;;;;;;;;;;41.53;17.11;95200.50;5077983;28;19912;-54
2021/08/14 07:17:39;;;;;;;;;;;;;;;41.86;16.94;95191.41;5078163;28;19913;-53
2021/08/14 07:20:06;;;;;;;;;;;;;;;41.61;17.29;95183.66;5078066;28;19919;-55
2021/08/14 07:22:33;;;;;;;;;;;;;;;41.91;16.89;95187.28;5074972;28;19920;-54
2021/08/14 07:25:00;;;;;;;;;;;;;;;41.97;16.72;95190.88;5077246;28;19927;-52
2021/08/14 07:27:27;;;;;;;;;;;;;;;42.01;16.38;95189.47;5077355;28;20234;-54
2021/08/14 07:29:54;;;;;;;;;;;;;;;42.72;16.13;95182.19;5074693;28;19936;-57
2021/08/14 07:32:21;;;;;;;;;;;;;;;43.30;15.98;95186.81;5057458;28;19991;-57
2021/08/14 07:34:47;;;;;;;;;;;;;;;42.49;16.37;95189.34;5073975;28;19919;-53
2021/08/14 07:37:14;;;;;;;;;;;;;;;42.74;15.96;95187.97;5077819;28;20234;-55
2021/08/14 07:39:41;;;;;;;;;;;;;;;42.52;16.21;95179.38;5068122;28;20247;-64
2021/08/14 07:42:08;;;;;;;;;;;;;;;41.83;17.55;95186.88;5065699;28;19916;-63
2021/08/14 07:44:35;;;;;;;;;;;;;;;41.99;17.96;95189.16;5077114;28;19923;-55
2021/08/14 07:47:02;;;;;;;;;;;;;;;42.02;17.38;95188.22;5077624;28;19920;-56
2021/08/14 07:49:29;;;;;;;;;;;;;;;42.17;17.25;95182.78;5077349;28;19916;-54
2021/08/14 07:51:55;;;;;;;;;;;;;;;42.45;17.46;95188.75;5076692;28;19940;-53
2021/08/14 07:54:22;;;;;;;;;;;;;;;43.08;16.30;95192.00;5063031;28;19921;-50
2021/08/14 07:56:49;;;;;;;;;;;;;;;43.36;16.00;95184.88;5057403;28;19932;-55
2021/08/14 07:59:16;;;;;;;;;;;;;;;43.14;15.82;95181.81;5057216;28;19920;-56
2021/08/14 08:01:43;;;;;;;;;;;;;;;43.10;16.12;95189.50;5057275;28;19924;-54
2021/08/14 08:04:10;;;;;;;;;;;;;;;43.27;15.96;95182.25;5067297;28;20293;-67
2021/08/14 08:06:36;;;;;;;;;;;;;;;43.93;15.33;95178.78;5074344;28;19917;-70
2021/08/14 08:09:03;;;;;;;;;;;;;;;43.25;15.43;95181.97;5059581;28;19920;-49
2021/08/14 08:11:30;;;;;;;;;;;;;;;42.97;16.09;95180.84;5066890;28;19917;-49
2021/08/14 08:13:57;;;;;;;;;;;;;;;42.81;16.22;95182.06;5063563;28;19921;-51
2021/08/14 08:16:24;;;;;;;;;;;;;;;42.90;16.34;95176.47;5076459;28;19912;-49
2021/08/14 08:18:51;;;;;;;;;;;;;;;42.95;15.92;95184.06;5077284;28;19923;-50
2021/08/14 08:21:18;;;;;;;;;;;;;;;42.86;15.37;95175.13;5075393;28;19978;-48
2021/08/14 08:23:45;;;;;;;;;;;;;;;42.75;15.56;95168.25;5069489;28;19916;-55
2021/08/14 08:26:11;;;;;;;;;;;;;;;42.43;16.06;95169.22;5056378;28;19952;-52
2021/08/14 08:28:38;;;;;;;;;;;;;;;42.46;15.26;95169.03;5056438;28;19924;-49
2021/08/14 08:31:05;;;;;;;;;;;;;;;42.24;15.91;95159.66;5056812;28;19912;-58
2021/08/14 08:33:32;;;;;;;;;;;;;;;42.41;15.03;95171.66;5061170;28;20335;-50
2021/08/14 08:35:59;;;;;;;;;;;;;;;42.58;15.60;95161.75;5076065;28;19916;-50
2021/08/14 08:38:27;;;;;;;;;;;;;;;43.29;14.59;95168.78;5076085;28;19917;-52
2021/08/14 08:40:54;;;;;;;;;;;;;;;42.62;15.39;95156.81;5076153;28;20222;-49
2021/08/14 08:43:21;;;;;;;;;;;;;;;42.43;15.13;95155.50;5059662;28;19912;-50
2021/08/14 08:45:48;;;;;;;;;;;;;;;42.47;14.88;95150.59;5076089;28;19920;-47
2021/08/14 08:48:16;;;;;;;;;;;;;;;42.46;14.37;95154.53;5075448;28;19913;-50
2021/08/14 08:50:43;;;;;;;;;;;;;;;43.06;14.17;95155.97;5076735;28;19924;-49
2021/08/14 08:53:10;;;;;;;;;;;;;;;43.27;13.75;95154.75;5074546;28;19920;-50
2021/08/14 08:55:37;;;;;;;;;;;;;;;42.74;13.28;95153.00;5056560;28;19919;-53
2021/08/14 08:58:04;;;;;;;;;;;;;;;42.88;14.11;95153.44;5056487;28;19928;-57
2021/08/14 09:00:31;;;;;;;;;;;;;;;43.07;13.94;95151.97;5055584;28;19913;-51
2021/08/14 09:03:05;;;;;;;;;;;;;;;43.19;13.76;95148.13;5072191;28;19916;-57
2021/08/14 09:05:31;;;;;;;;;;;;;;;43.37;13.32;95152.63;5056179;28;19924;-56
2021/08/14 09:08:08;;;;;;;;;;;;;;;43.45;13.47;95142.72;5055839;28;19921;-53
2021/08/14 09:10:35;;;;;;;;;;;;;;;43.44;13.33;95143.19;5055591;28;19917;-51
2021/08/14 09:13:17;;;;;;;;;;;;;;;43.71;13.05;95139.25;5055500;28;19917;-51
2021/08/14 09:15:45;;;;;;;;;;;;;;;43.16;13.75;95138.06;5055864;28;19919;-49
2021/08/14 09:18:15;;;;;;;;;;;;;;;43.34;13.63;95137.09;5055500;28;19913;-51
2021/08/14 09:20:45;;;;;;;;;;;;;;;43.44;13.50;95137.69;5055855;28;19913;-54
2021/08/14 09:23:13;;;;;;;;;;;;;;;43.49;13.22;95131.50;5055083;28;19913;-49
2021/08/14 09:25:41;;;;;;;;;;;;;;;43.67;13.22;95131.19;5054786;28;19924;-49
2021/08/14 09:28:08;;;;;;;;;;;;;;;43.22;12.94;95133.44;5057219;28;19912;-54
2021/08/14 09:30:47;;;;;;;;;;;;;;;43.07;12.94;95130.72;5071271;28;19913;-50
2021/08/14 09:33:14;;;;;;;;;;;;;;;43.08;12.99;95120.47;5057732;28;19920;-52
2021/08/14 09:35:42;;;;;;;;;;;;;;;43.39;12.89;95128.88;5053823;28;19912;-50
2021/08/14 09:38:10;;;;;;;;;;;;;;;43.30;13.13;95123.53;5054705;28;19917;-49
2021/08/14 09:40:41;;;;;;;;;;;;;;;43.58;13.14;95117.59;5054267;28;19916;-53
2021/08/14 09:43:08;;;;;;;;;;;;;;;43.23;12.90;95112.94;5055104;28;19917;-55
2021/08/14 09:45:36;;;;;;;;;;;;;;;43.13;13.13;95113.53;5054886;28;20295;-52
2021/08/14 09:48:16;;;;;;;;;;;;;;;43.47;12.57;95106.47;5055258;28;19923;-51
2021/08/14 09:50:43;;;;;;;;;;;;;;;43.14;12.86;95104.81;5055065;28;19912;-51
2021/08/14 09:53:10;;;;;;;;;;;;;;;43.16;12.64;95104.31;5070681;28;19923;-53
2021/08/14 09:55:38;;;;;;;;;;;;;;;43.62;12.61;95107.13;5075389;28;19919;-53
2021/08/14 09:58:05;;;;;;;;;;;;;;;43.36;13.31;95096.09;5075190;28;19916;-52
2021/08/14 10:00:32;;;;;;;;;;;;;;;43.57;14.61;95088.56;5060431;28;19920;-56
2021/08/14 10:02:59;;;;;;;;;;;;;;;43.12;13.37;95092.78;5054678;28;19912;-52
2021/08/14 10:05:26;;;;;;;;;;;;;;;43.75;13.89;95087.53;5055126;28;19925;-49
2021/08/14 10:07:52;;;;;;;;;;;;;;;43.26;13.55;95089.97;5054047;28;19923;-50
2021/08/14 10:10:19;;;;;;;;;;;;;;;43.36;13.55;95085.09;5066141;28;19920;-51
2021/08/14 10:12:46;;;;;;;;;;;;;;;43.57;13.88;95083.81;5062576;28;19916;-49
2021/08/14 10:15:13;;;;;;;;;;;;;;;43.36;13.76;95079.59;5054719;28;20292;-54
2021/08/14 10:17:40;;;;;;;;;;;;;;;42.75;13.71;95083.06;5055276;28;19917;-50
2021/08/14 10:20:07;;;;;;;;;;;;;;;43.35;13.39;95078.06;5064598;28;19919;-49
2021/08/14 10:22:34;;;;;;;;;;;;;;;43.01;13.23;95076.91;5073845;28;19916;-52
2021/08/14 10:25:00;;;;;;;;;;;;;;;43.36;13.28;95069.34;5074253;28;19949;-50
2021/08/14 10:27:27;;;;;;;;;;;;;;;43.62;13.23;95068.59;5075273;28;20238;-52
2021/08/14 10:29:59;;;;;;;;;;;;;;;43.28;13.36;95062.75;5066212;28;19920;-53
2021/08/14 10:32:32;;;;;;;;;;;;;;;43.28;12.56;95068.25;5054804;28;20338;-50
2021/08/14 10:35:11;;;;;;;;;;;;;;;43.19;12.78;95059.34;5055064;28;19920;-53
2021/08/14 10:37:39;;;;;;;;;;;;;;;43.00;12.44;95050.66;5054731;28;19928;-50
2021/08/14 10:40:06;;;;;;;;;;;;;;;43.21;12.42;95057.66;5073985;28;19916;-51
2021/08/14 10:42:52;;;;;;;;;;;;;;;43.32;13.32;95046.03;5074713;28;20234;-55
2021/08/14 10:45:22;;;;;;;;;;;;;;;43.63;13.91;95048.09;5067012;28;19924;-52
2021/08/14 10:47:52;;;;;;;;;;;;;;;43.17;13.23;95054.34;5054843;28;19917;-49
2021/08/14 10:50:31;;;;;;;;;;;;;;;42.88;13.39;95036.00;5050598;28;19924;-52
2021/08/14 10:53:10;;;;;;;;;;;;;;;43.23;12.89;95049.66;5049558;28;19928;-52
2021/08/14 10:55:37;;;;;;;;;;;;;;;43.03;12.58;95036.69;5049830;28;20295;-49
2021/08/14 10:58:23;;;;;;;;;;;;;;;43.47;13.49;95034.94;5053233;28;19935;-52
2021/08/14 11:00:50;;;;;;;;;;;;;;;43.49;12.93;95029.69;5069762;28;19912;-53
2021/08/14 11:03:18;;;;;;;;;;;;;;;43.18;13.52;95033.09;5073598;28;19912;-49
2021/08/14 11:05:48;;;;;;;;;;;;;;;43.29;13.21;95034.00;5074739;28;19920;-50
2021/08/14 11:08:41;;;;;;;;;;;;;;;43.03;12.98;95038.69;5073480;28;19923;-52
2021/08/14 11:11:27;;;;;;;;;;;;;;;42.64;12.98;95033.41;5054558;28;20300;-48
2021/08/14 11:14:07;;;;;;;;;;;;;;;42.97;12.64;95030.38;5053686;28;20258;-50
2021/08/14 11:16:53;;;;;;;;;;;;;;;42.59;12.97;95025.84;5054409;28;19920;-51
2021/08/14 11:19:39;;;;;;;;;;;;;;;42.45;12.85;95032.16;5071278;28;20030;-51
2021/08/14 11:22:18;;;;;;;;;;;;;;;43.03;13.14;95025.69;5073876;28;19979;-50
2021/08/14 11:24:45;;;;;;;;;;;;;;;42.26;12.84;95022.63;5074684;28;19923;-51
2021/08/14 11:27:31;;;;;;;;;;;;;;;42.39;13.13;95023.06;5073575;28;20238;-51
2021/08/14 11:30:04;;;;;;;;;;;;;;;42.99;12.70;95021.66;5078027;28;19913;-48
2021/08/14 11:32:32;;;;;;;;;;;;;;;42.72;12.79;95007.06;5058001;28;19913;-51
2021/08/14 11:34:59;;;;;;;;;;;;;;;42.67;13.14;95009.72;5068538;28;19927;-48
2021/08/14 11:37:26;;;;;;;;;;;;;;;42.92;12.65;95008.28;5078085;28;19912;-49
2021/08/14 11:40:01;;;;;;;;;;;;;;;42.52;12.83;95014.53;5065278;28;19990;-58
2021/08/14 11:42:29;;;;;;;;;;;;;;;42.16;12.93;95009.03;5066893;28;20326;-58
2021/08/14 11:44:56;;;;;;;;;;;;;;;41.90;12.80;95005.31;5057757;28;19924;-60
2021/08/14 11:47:34;;;;;;;;;;;;;;;41.80;12.93;95017.66;5057872;28;19920;-61
2021/08/14 11:50:01;;;;;;;;;;;;;;;41.98;12.72;95011.94;5059065;28;19916;-62
2021/08/14 11:52:29;;;;;;;;;;;;;;;41.51;13.05;95016.41;5056627;28;19924;-56
2021/08/14 11:55:00;;;;;;;;;;;;;;;41.88;12.38;95002.28;5057758;28;19913;-57
2021/08/14 11:57:29;;;;;;;;;;;;;;;42.00;12.60;95004.00;5057807;28;19916;-57
2021/08/14 11:59:56;;;;;;;;;;;;;;;41.70;13.20;95008.00;5062642;28;19912;-59
2021/08/14 12:02:25;;;;;;;;;;;;;;;41.80;12.93;94995.69;5077337;28;19916;-62
2021/08/14 12:04:53;;;;;;;;;;;;;;;42.04;13.16;94990.06;5076649;28;19916;-62
2021/08/14 12:07:20;;;;;;;;;;;;;;;42.17;12.92;94988.56;5076689;28;19943;-59
2021/08/14 12:09:48;;;;;;;;;;;;;;;42.24;12.31;94972.91;5075905;28;19923;-58
2021/08/14 12:12:16;;;;;;;;;;;;;;;41.98;12.83;94987.25;5072640;28;19923;-57
2021/08/14 12:14:43;;;;;;;;;;;;;;;41.90;12.71;94983.34;5057421;28;20319;-59
2021/08/14 12:17:10;;;;;;;;;;;;;;;41.75;13.16;94980.66;5057354;28;19913;-56
2021/08/14 12:19:46;;;;;;;;;;;;;;;41.45;13.03;94976.38;5059370;28;19917;-55
2021/08/14 12:22:14;;;;;;;;;;;;;;;41.04;13.35;94975.34;5065102;28;19924;-62
2021/08/14 12:24:41;;;;;;;;;;;;;;;41.25;13.15;94979.78;5065963;28;19913;-58
2021/08/14 12:27:26;;;;;;;;;;;;;;;41.39;13.55;94975.53;5065768;28;19924;-61
2021/08/14 12:29:53;;;;;;;;;;;;;;;41.24;13.55;94970.03;5061186;28;19923;-61
2021/08/14 12:32:27;;;;;;;;;;;;;;;40.56;13.52;94964.44;5073486;28;20313;-57
2021/08/14 12:35:11;;;;;;;;;;;;;;;41.22;13.30;94953.28;5056701;28;20346;-56
2021/08/14 12:37:38;;;;;;;;;;;;;;;40.79;13.63;94960.91;5056900;28;20231;-59
2021/08/14 12:40:06;;;;;;;;;;;;;;;40.81;13.64;94953.00;5061270;28;19916;-56
2021/08/14 12:42:33;;;;;;;;;;;;;;;41.02;13.98;94955.88;5076326;28;19928;-57
2021/08/14 12:45:13;;;;;;;;;;;;;;;41.05;13.72;94954.94;5076413;28;19917;-57
2021/08/14 12:47:40;;;;;;;;;;;;;;;41.04;13.54;94948.69;5075817;28;19916;-55
2021/08/14 12:50:11;;;;;;;;;;;;;;;41.19;13.49;94946.00;5070804;28;19913;-57
2021/08/14 12:52:38;;;;;;;;;;;;;;;41.17;13.51;94940.97;5056567;28;19920;-61